East Quilcene, Washington
Current Conditions -  °F | °C
As of 12:35 PM on Friday 28 Nov 2014 (Local Time) from KPWT Reporting Station
Overcast Overcast  
Wind Chill: 37°   Ceiling: 2200
Heat Index: 43°   Visibility: 10mi
Dew Point: 41°   Wind: 10mph
Humidity: 93%   Direction: 30°NNE
Pressure: 29.5"   Gusts: 18mph
Location:  47.8412°N, 122.841°W
Report Text: KPWT 282035Z AUTO 03009G16KT 10SM FEW006 SCT013 OVC022 06/05 A2950 RMK AO1 P0010
Loading
Personal Weather Stations






























Interactive Weather Map New forecast layout! Learn more

10-Day Weather Forecast

Advertisements
Track Severe Weather on mobile